Time;durP1;ratioP1;P1;durP2;ratioP2;P2;SDS_P1;SDS_P2;PMS_P1;PMS_P2;Temp;Humidity;BMP_temperature;BMP_pressure;BME280_temperature;BME280_humidity;BME280_pressure;Samples;Min_cycle;Max_cycle;Signal;HPM_P1;HPM_P2
2022/12/31 00:02:38;;;;;;;196.53;100.73;;;;;;;-1.83;100.00;99156.08;4069330;86;21111;-87
2022/12/31 00:08:39;;;;;;;178.40;94.07;;;;;;;-1.86;100.00;99141.36;4071509;86;21045;-87
2022/12/31 00:14:41;;;;;;;191.60;97.63;;;;;;;-2.01;100.00;99155.01;4065439;86;20994;-87
2022/12/31 00:20:42;;;;;;;169.70;89.40;;;;;;;-2.05;100.00;99148.61;4075094;86;21642;-86
2022/12/31 00:27:00;;;;;;;173.67;91.73;;;;;;;-2.05;100.00;99147.83;4066987;86;20984;-87
2022/12/31 00:33:02;;;;;;;181.87;92.83;;;;;;;-2.05;100.00;99143.23;4071490;86;21066;-87
2022/12/31 00:39:07;;;;;;;180.30;92.97;;;;;;;-2.18;100.00;99146.66;4063837;86;21036;-88
2022/12/31 00:45:09;;;;;;;179.70;90.27;;;;;;;-2.17;100.00;99156.28;4072161;86;21050;-87
2022/12/31 00:51:14;;;;;;;181.90;93.50;;;;;;;-2.11;100.00;99153.79;4071217;86;21042;-87
2022/12/31 00:57:43;;;;;;;203.43;98.77;;;;;;;-2.08;100.00;99161.26;4068027;86;21048;-87
2022/12/31 01:04:07;;;;;;;193.57;98.97;;;;;;;-2.08;100.00;99156.42;4074871;86;21375;-87
2022/12/31 01:42:58;;;;;;;178.50;91.57;;;;;;;-2.02;100.00;99138.63;3862910;90;21084;-88
2022/12/31 01:49:14;;;;;;;174.87;89.27;;;;;;;-1.99;100.00;99119.84;3950706;88;21182;-88
2022/12/31 01:55:54;;;;;;;196.18;98.87;;;;;;;-1.95;100.00;99118.97;3953530;88;21115;-87
2022/12/31 02:02:05;;;;;;;160.87;84.07;;;;;;;-1.89;100.00;99119.14;3969451;88;22130;-87
2022/12/31 02:16:14;;;;;;;172.00;85.97;;;;;;;-1.91;100.00;99137.97;4008466;88;21061;-87
2022/12/31 02:30:08;;;;;;;160.50;87.00;;;;;;;-1.80;100.00;99124.09;4013256;86;21032;-87
2022/12/31 02:36:18;;;;;;;179.20;94.60;;;;;;;-1.73;100.00;99136.62;4033435;87;20964;-86
2022/12/31 02:42:20;;;;;;;195.90;103.27;;;;;;;-1.64;100.00;99140.23;4107168;85;21083;-87
2022/12/31 02:48:55;;;;;;;196.87;102.53;;;;;;;-1.54;100.00;99131.23;4114134;85;21055;-86
2022/12/31 02:55:02;;;;;;;187.32;93.80;;;;;;;-1.45;100.00;99139.39;3938160;85;21567;-87
2022/12/31 03:07:28;;;;;;;200.20;102.23;;;;;;;-1.30;100.00;99138.59;4096013;86;21063;-87
2022/12/31 03:13:29;;;;;;;198.00;98.75;;;;;;;-1.27;100.00;99145.29;4089459;85;21969;-87
2022/12/31 03:32:18;;;;;;;193.05;99.85;;;;;;;-1.16;100.00;99111.80;4087894;86;21491;-87
2022/12/31 03:45:13;;;;;;;195.72;97.37;;;;;;;-1.14;100.00;99082.19;3907598;89;21013;-87
2022/12/31 04:05:07;;;;;;;181.00;92.27;;;;;;;-1.17;100.00;99143.22;4012156;87;21090;-88
2022/12/31 04:11:09;;;;;;;203.32;100.40;;;;;;;-1.06;100.00;99141.15;4007615;87;22028;-87
2022/12/31 04:17:10;;;;;;;211.03;105.05;;;;;;;-0.91;100.00;99146.27;4007486;87;21520;-88
2022/12/31 04:23:22;;;;;;;205.47;103.65;;;;;;;-0.78;100.00;99142.78;4016601;87;21546;-88
2022/12/31 04:29:23;;;;;;;213.65;108.00;;;;;;;-0.68;100.00;99142.61;4007919;87;21098;-87
2022/12/31 04:35:34;;;;;;;204.32;104.90;;;;;;;-0.60;100.00;99138.69;4018355;87;21993;-87
2022/12/31 04:41:36;;;;;;;206.78;102.65;;;;;;;-0.61;100.00;99150.52;4010658;87;21649;-88
2022/12/31 04:47:37;;;;;;;197.95;98.15;;;;;;;-0.58;100.00;99147.80;3993383;87;21082;-88
2022/12/31 04:53:39;;;;;;;208.75;109.90;;;;;;;-0.58;100.00;99143.77;3986635;87;21101;-87
2022/12/31 04:59:42;;;;;;;223.55;110.30;;;;;;;-0.67;100.00;99140.16;3992760;87;21574;-88
2022/12/31 05:05:43;;;;;;;224.37;112.08;;;;;;;-0.67;100.00;99140.16;3999675;87;21416;-88
2022/12/31 05:11:45;;;;;;;223.15;108.60;;;;;;;-0.67;100.00;99161.66;4000268;87;21070;-86
2022/12/31 05:17:46;;;;;;;216.60;106.50;;;;;;;-0.64;100.00;99170.51;3993615;87;21093;-88
2022/12/31 05:23:48;;;;;;;192.30;95.28;;;;;;;-0.57;100.00;99174.39;3992827;87;21521;-88
2022/12/31 05:29:50;;;;;;;205.47;100.05;;;;;;;-0.59;100.00;99156.41;3993994;87;21074;-87
2022/12/31 05:35:51;;;;;;;187.37;91.40;;;;;;;-0.42;100.00;99167.90;3988852;87;21098;-87
2022/12/31 05:41:53;;;;;;;185.35;91.78;;;;;;;-0.36;100.00;99162.70;3986179;87;21042;-88
2022/12/31 05:47:54;;;;;;;177.68;87.90;;;;;;;-0.29;100.00;99169.27;4022886;86;21110;-88
2022/12/31 05:53:56;;;;;;;173.25;86.20;;;;;;;-0.21;100.00;99164.53;3985189;87;21111;-87
2022/12/31 05:59:57;;;;;;;168.13;85.07;;;;;;;-0.10;100.00;99167.26;3981107;87;21111;-88
2022/12/31 06:06:07;;;;;;;160.70;85.00;;;;;;;-0.09;100.00;99145.97;3986131;87;21159;-88
2022/12/31 06:12:11;;;;;;;129.82;64.85;;;;;;;0.14;100.00;99156.25;3979331;87;21047;-88
2022/12/31 06:18:14;;;;;;;143.13;72.95;;;;;;;0.37;100.00;99167.84;3980188;87;21043;-86
2022/12/31 06:24:21;;;;;;;125.45;68.12;;;;;;;0.65;100.00;99178.77;3987648;87;21087;-89
2022/12/31 06:30:22;;;;;;;129.50;71.47;;;;;;;0.94;100.00;99183.19;3991883;87;21089;-88
2022/12/31 06:36:25;;;;;;;126.18;73.00;;;;;;;1.32;100.00;99195.94;3983557;87;21016;-88
2022/12/31 06:42:29;;;;;;;100.78;56.92;;;;;;;1.77;100.00;99197.95;3979025;87;21091;-89
2022/12/31 06:48:33;;;;;;;92.02;47.17;;;;;;;2.10;100.00;99207.84;3982016;87;21062;-89
2022/12/31 06:54:35;;;;;;;70.08;37.13;;;;;;;2.54;100.00;99198.11;3978424;87;21384;-87
2022/12/31 07:00:51;;;;;;;29.07;15.23;;;;;;;3.05;100.00;99205.65;3983568;87;21138;-89
2022/12/31 07:07:34;;;;;;;14.03;8.83;;;;;;;3.30;100.00;99207.28;3963300;87;21127;-90
2022/12/31 07:13:54;;;;;;;7.30;4.33;;;;;;;3.74;100.00;99222.53;3945719;87;22029;-89
2022/12/31 07:20:04;;;;;;;7.62;4.90;;;;;;;4.32;100.00;99220.41;4022653;86;21078;-89
2022/12/31 07:26:23;;;;;;;6.37;4.22;;;;;;;4.73;100.00;99205.50;4109245;85;22139;-88
2022/12/31 07:32:38;;;;;;;9.63;3.90;;;;;;;5.16;100.00;99203.78;4083688;85;21079;-89
2022/12/31 07:39:00;;;;;;;5.42;3.15;;;;;;;5.38;100.00;99221.84;4099350;85;21038;-89
2022/12/31 07:45:21;;;;;;;6.55;2.90;;;;;;;5.67;100.00;99216.83;4101517;85;21634;-88
2022/12/31 07:51:24;;;;;;;4.30;2.55;;;;;;;5.84;100.00;99220.73;4101252;84;21586;-88
2022/12/31 07:57:31;;;;;;;4.37;2.30;;;;;;;6.07;100.00;99219.15;4097118;85;20987;-87
2022/12/31 08:04:03;;;;;;;4.10;2.62;;;;;;;6.30;100.00;99225.15;4022347;86;21041;-88
2022/12/31 08:10:19;;;;;;;4.50;2.30;;;;;;;6.69;100.00;99241.30;3968054;86;21066;-88
2022/12/31 08:16:21;;;;;;;2.65;1.92;;;;;;;7.04;100.00;99240.19;4030279;87;20960;-89
2022/12/31 08:23:01;;;;;;;3.45;2.17;;;;;;;7.49;100.00;99231.94;4007347;87;21052;-89
2022/12/31 08:29:26;;;;;;;3.75;2.45;;;;;;;7.91;100.00;99237.13;4108024;85;21035;-90
2022/12/31 08:35:33;;;;;;;3.92;2.37;;;;;;;8.50;100.00;99229.42;4112200;85;21484;-90
2022/12/31 08:41:46;;;;;;;2.58;1.92;;;;;;;9.02;100.00;99233.89;4111951;85;21071;-89
2022/12/31 08:48:34;;;;;;;5.03;2.62;;;;;;;9.28;100.00;99228.00;4124349;84;21026;-90
2022/12/31 08:54:36;;;;;;;4.15;1.87;;;;;;;9.35;100.00;99245.08;4116769;84;21102;-89
2022/12/31 09:00:39;;;;;;;2.75;2.00;;;;;;;9.43;100.00;99257.73;4105929;85;22204;-90
2022/12/31 09:07:00;;;;;;;3.55;2.37;;;;;;;9.78;100.00;99264.45;4112822;85;21080;-90
2022/12/31 09:13:41;;;;;;;3.62;2.30;;;;;;;9.82;100.00;99265.33;4080575;85;21054;-90
2022/12/31 09:19:43;;;;;;;4.97;2.22;;;;;;;9.91;100.00;99264.50;4099397;85;20975;-89
2022/12/31 09:25:54;;;;;;;2.60;1.65;;;;;;;10.31;100.00;99257.98;4103210;85;21504;-88
2022/12/31 09:32:24;;;;;;;2.95;1.75;;;;;;;10.87;100.00;99258.83;4116804;85;21011;-88
2022/12/31 09:38:51;;;;;;;3.87;2.10;;;;;;;10.88;100.00;99255.72;4110101;85;21002;-90
2022/12/31 09:45:06;;;;;;;3.80;1.90;;;;;;;10.88;100.00;99241.27;4106973;85;21002;-90
2022/12/31 09:51:28;;;;;;;2.85;1.45;;;;;;;11.20;100.00;99236.97;4087657;85;21037;-91
2022/12/31 09:58:01;;;;;;;2.87;1.85;;;;;;;11.63;100.00;99238.28;4046401;85;21061;-90
2022/12/31 10:04:41;;;;;;;2.90;1.80;;;;;;;12.02;100.00;99231.23;4090701;85;21118;-89
2022/12/31 10:10:54;;;;;;;2.77;1.70;;;;;;;12.37;100.00;99229.55;4074264;85;21081;-89
2022/12/31 10:17:38;;;;;;;4.22;2.10;;;;;;;12.91;100.00;99230.11;4094210;85;21054;-89
2022/12/31 10:24:20;;;;;;;4.10;1.98;;;;;;;13.25;100.00;99238.96;4092038;85;21022;-89
2022/12/31 10:30:23;;;;;;;3.15;1.65;;;;;;;13.44;100.00;99259.23;4091001;84;21015;-89
2022/12/31 10:36:55;;;;;;;2.85;1.60;;;;;;;13.62;100.00;99240.27;4097288;85;21006;-89
2022/12/31 10:43:33;;;;;;;3.33;1.92;;;;;;;13.75;100.00;99236.57;4084501;86;21528;-88
2022/12/31 10:50:09;;;;;;;2.35;1.40;;;;;;;13.63;100.00;99210.20;4011300;87;21068;-91
2022/12/31 10:56:52;;;;;;;3.50;2.10;;;;;;;13.49;100.00;99230.80;4125949;84;21077;-89
2022/12/31 11:03:11;;;;;;;2.55;1.50;;;;;;;13.35;100.00;99239.57;4119422;84;21130;-89
2022/12/31 11:09:44;;;;;;;2.85;1.70;;;;;;;13.23;100.00;99227.55;4125101;84;21142;-90
2022/12/31 11:16:02;;;;;;;2.80;1.70;;;;;;;13.00;100.00;99229.78;4121221;84;21121;-90
2022/12/31 11:22:22;;;;;;;4.92;2.35;;;;;;;12.82;100.00;99247.53;4118200;84;21045;-89
2022/12/31 11:28:42;;;;;;;3.65;2.00;;;;;;;12.81;100.00;99251.44;4134997;84;21047;-91
2022/12/31 11:35:30;;;;;;;2.72;1.70;;;;;;;12.84;100.00;99245.20;4126500;83;21061;-90
2022/12/31 11:41:40;;;;;;;3.60;1.87;;;;;;;12.90;100.00;99241.48;4120122;84;21563;-89
2022/12/31 11:48:30;;;;;;;4.15;2.05;;;;;;;12.92;99.77;99241.90;4119345;84;21083;-89
2022/12/31 11:54:43;;;;;;;3.33;2.15;;;;;;;12.87;99.22;99241.69;4069923;85;21067;-89
2022/12/31 12:00:56;;;;;;;2.75;1.72;;;;;;;12.79;98.48;99225.53;4094277;85;21114;-89
2022/12/31 12:06:57;;;;;;;2.95;1.67;;;;;;;12.64;97.90;99226.81;4109486;85;21084;-89
2022/12/31 12:12:59;;;;;;;5.95;2.45;;;;;;;12.53;97.28;99216.34;4102471;85;21106;-90
2022/12/31 12:19:05;;;;;;;3.22;2.10;;;;;;;12.50;96.77;99215.73;4104526;84;21114;-89
2022/12/31 12:25:11;;;;;;;5.08;2.40;;;;;;;12.49;97.23;99223.78;4098348;85;21040;-89
2022/12/31 12:31:22;;;;;;;5.20;2.62;;;;;;;12.50;97.23;99217.69;4087899;85;21323;-89
2022/12/31 12:37:34;;;;;;;5.53;2.33;;;;;;;12.50;96.12;99221.23;4095841;85;21835;-89
2022/12/31 12:43:37;;;;;;;4.33;2.45;;;;;;;12.54;96.29;99219.28;4097093;85;21074;-90
2022/12/31 12:49:43;;;;;;;3.98;2.27;;;;;;;12.53;96.12;99218.30;4119500;85;21070;-90
2022/12/31 12:56:21;;;;;;;3.70;2.23;;;;;;;12.51;95.94;99218.67;4099809;85;21745;-89
2022/12/31 13:03:06;;;;;;;4.70;2.55;;;;;;;12.46;95.35;99208.66;4113006;84;21062;-88
2022/12/31 13:09:22;;;;;;;4.45;2.35;;;;;;;12.40;95.27;99217.81;4095391;85;22387;-90
2022/12/31 13:16:06;;;;;;;5.15;2.25;;;;;;;12.28;95.21;99215.37;4088603;85;21056;-90
2022/12/31 13:22:16;;;;;;;6.15;2.60;;;;;;;12.14;95.04;99204.29;4058475;85;22297;-90
2022/12/31 13:28:19;;;;;;;4.90;2.60;;;;;;;12.01;95.22;99212.59;4065174;85;21044;-89
2022/12/31 13:34:28;;;;;;;4.37;2.52;;;;;;;11.98;95.23;99211.98;4078203;85;21019;-90
2022/12/31 13:40:48;;;;;;;4.97;2.65;;;;;;;11.88;95.41;99207.78;4095253;85;21025;-89
2022/12/31 13:47:13;;;;;;;7.03;3.20;;;;;;;11.75;95.17;99207.84;4079913;84;21192;-89
2022/12/31 13:53:28;;;;;;;7.25;3.72;;;;;;;11.66;95.53;99211.48;4103438;85;21051;-89
2022/12/31 13:59:37;;;;;;;5.90;3.70;;;;;;;11.65;95.66;99224.39;4019579;86;21079;-90
2022/12/31 14:05:49;;;;;;;11.78;4.20;;;;;;;11.64;95.90;99227.52;3976253;87;20988;-90
2022/12/31 14:12:46;;;;;;;7.70;4.37;;;;;;;11.57;96.05;99235.08;3973336;87;21015;-90
2022/12/31 14:19:11;;;;;;;7.90;4.15;;;;;;;11.53;96.24;99231.48;3979256;87;21023;-90
2022/12/31 14:25:30;;;;;;;7.58;3.83;;;;;;;11.58;96.17;99228.99;3957158;88;21051;-90
2022/12/31 14:31:53;;;;;;;7.15;3.83;;;;;;;11.61;96.32;99233.15;3959680;89;20991;-90
2022/12/31 14:38:38;;;;;;;8.83;4.20;;;;;;;11.58;96.32;99245.44;4019077;86;21404;-89
2022/12/31 14:45:08;;;;;;;10.15;4.92;;;;;;;11.45;96.45;99249.62;4063651;85;21014;-91
2022/12/31 14:51:11;;;;;;;9.60;4.65;;;;;;;11.24;96.50;99247.41;4090684;84;21060;-90
2022/12/31 14:57:24;;;;;;;7.40;4.20;;;;;;;11.08;96.66;99235.84;4096653;85;21014;-90
2022/12/31 15:03:34;;;;;;;7.85;4.67;;;;;;;10.93;96.83;99242.31;4097623;85;21043;-89
2022/12/31 15:10:03;;;;;;;8.58;4.87;;;;;;;10.77;97.19;99248.54;4094416;85;21020;-89
2022/12/31 15:16:44;;;;;;;10.40;5.12;;;;;;;10.67;97.43;99249.96;4104025;85;21912;-90
2022/12/31 15:22:51;;;;;;;10.28;5.20;;;;;;;10.56;97.66;99263.27;4098364;85;21062;-89
2022/12/31 15:29:04;;;;;;;10.53;5.85;;;;;;;10.46;97.83;99248.86;4099253;85;20988;-89
2022/12/31 15:35:25;;;;;;;7.53;4.92;;;;;;;10.41;98.13;99246.42;4101265;85;20963;-89
2022/12/31 15:41:38;;;;;;;11.93;5.83;;;;;;;10.38;98.54;99250.67;4101582;85;21487;-89
2022/12/31 15:47:48;;;;;;;11.97;5.12;;;;;;;10.31;98.81;99260.72;4013709;87;21047;-90
2022/12/31 15:53:56;;;;;;;10.80;5.45;;;;;;;10.24;98.97;99270.20;3972179;87;21504;-90
2022/12/31 16:00:01;;;;;;;9.00;5.05;;;;;;;10.30;99.32;99273.63;4021392;86;21000;-89
2022/12/31 16:06:13;;;;;;;11.15;5.40;;;;;;;10.38;99.17;99280.77;4017469;86;21034;-90
2022/12/31 16:12:25;;;;;;;10.50;5.72;;;;;;;10.43;99.19;99269.52;4023038;86;21559;-89
2022/12/31 16:18:38;;;;;;;12.23;6.58;;;;;;;10.50;99.17;99283.91;4004204;86;21115;-88
2022/12/31 16:24:42;;;;;;;12.15;6.90;;;;;;;10.36;99.22;99281.73;4014048;86;21059;-88
2022/12/31 16:30:44;;;;;;;12.35;7.00;;;;;;;10.28;99.51;99297.02;4022721;86;21340;-90
2022/12/31 16:37:03;;;;;;;17.48;8.13;;;;;;;10.19;99.86;99294.55;4019957;86;21494;-91
2022/12/31 16:43:26;;;;;;;16.07;8.73;;;;;;;10.22;100.00;99308.06;4021684;86;21495;-90
2022/12/31 16:49:31;;;;;;;17.35;9.25;;;;;;;10.35;100.00;99304.00;3852846;90;21895;-90
2022/12/31 16:55:35;;;;;;;23.73;11.12;;;;;;;10.34;100.00;99317.45;4035942;86;21547;-89
2022/12/31 17:01:40;;;;;;;19.90;9.33;;;;;;;10.37;100.00;99320.82;4045569;86;21604;-89
2022/12/31 17:07:42;;;;;;;12.60;6.45;;;;;;;10.43;100.00;99325.63;3970232;88;21043;-90
2022/12/31 17:13:55;;;;;;;13.53;7.28;;;;;;;10.56;100.00;99318.02;4045122;86;21576;-90
2022/12/31 17:20:04;;;;;;;13.72;8.30;;;;;;;10.67;100.00;99323.08;4032429;86;20987;-91
2022/12/31 17:26:15;;;;;;;10.63;5.75;;;;;;;10.72;100.00;99323.58;4022782;86;21091;-89
2022/12/31 17:32:43;;;;;;;11.70;6.70;;;;;;;10.73;100.00;99326.52;4022616;86;21583;-91
2022/12/31 17:38:44;;;;;;;8.55;5.58;;;;;;;10.78;100.00;99319.94;3990015;86;21670;-90
2022/12/31 17:44:46;;;;;;;12.85;7.10;;;;;;;10.90;100.00;99314.23;4044215;86;21091;-90
2022/12/31 17:50:54;;;;;;;11.78;6.25;;;;;;;10.92;100.00;99316.03;4006881;86;21123;-91
2022/12/31 17:56:59;;;;;;;14.78;7.22;;;;;;;10.88;100.00;99321.45;4023272;86;21079;-91
2022/12/31 18:03:03;;;;;;;12.10;6.42;;;;;;;10.85;100.00;99333.75;4017225;86;21411;-89
2022/12/31 18:09:05;;;;;;;10.48;6.10;;;;;;;10.81;100.00;99335.06;4006081;86;21059;-90
2022/12/31 18:15:20;;;;;;;9.25;5.22;;;;;;;10.82;100.00;99334.48;4021087;86;21050;-91
2022/12/31 18:21:31;;;;;;;10.25;5.08;;;;;;;10.87;99.88;99343.73;4023227;86;21979;-90
2022/12/31 18:27:38;;;;;;;8.00;4.60;;;;;;;10.89;99.88;99330.47;3994553;86;21756;-91
2022/12/31 18:33:40;;;;;;;9.33;4.62;;;;;;;10.93;99.90;99316.27;4022872;86;21107;-89
2022/12/31 18:39:44;;;;;;;7.72;4.72;;;;;;;10.82;99.45;99328.41;3999710;86;21031;-90
2022/12/31 18:45:51;;;;;;;6.87;4.17;;;;;;;10.67;99.67;99344.42;4003673;86;21118;-91
2022/12/31 18:51:59;;;;;;;7.70;4.75;;;;;;;10.72;100.00;99344.69;4014259;86;21099;-90
2022/12/31 18:58:01;;;;;;;8.00;4.47;;;;;;;10.84;99.84;99334.32;4109499;85;21081;-90
2022/12/31 19:04:12;;;;;;;6.90;4.30;;;;;;;10.95;99.53;99337.21;4092979;83;21516;-90
2022/12/31 19:10:15;;;;;;;8.15;4.75;;;;;;;10.89;99.53;99341.42;4103835;84;21685;-89
2022/12/31 19:16:17;;;;;;;7.50;4.80;;;;;;;11.01;99.46;99350.22;4109549;85;21057;-90
2022/12/31 19:22:19;;;;;;;7.85;4.60;;;;;;;10.98;99.36;99350.16;4115871;85;21050;-89
2022/12/31 19:28:24;;;;;;;8.98;5.45;;;;;;;10.95;99.04;99346.23;4111386;85;21405;-90
2022/12/31 19:34:26;;;;;;;9.93;5.12;;;;;;;11.00;98.96;99353.34;4119891;84;21001;-89
2022/12/31 19:40:36;;;;;;;9.88;5.20;;;;;;;10.93;98.64;99357.35;4109817;85;21078;-90
2022/12/31 19:46:41;;;;;;;9.38;5.33;;;;;;;10.77;98.88;99344.38;4096302;85;21717;-90
2022/12/31 19:52:45;;;;;;;13.68;7.83;;;;;;;10.78;98.84;99345.37;4094771;85;21079;-89
2022/12/31 19:58:54;;;;;;;9.78;5.67;;;;;;;10.90;98.71;99353.37;4102484;84;21902;-91
2022/12/31 20:05:00;;;;;;;9.68;5.95;;;;;;;10.90;98.56;99361.59;4097381;85;21663;-91
2022/12/31 20:11:11;;;;;;;11.15;5.62;;;;;;;10.99;98.11;99365.47;4100424;85;21468;-90
2022/12/31 20:17:19;;;;;;;11.05;6.25;;;;;;;11.05;98.01;99356.56;4113842;83;21058;-90
2022/12/31 20:23:24;;;;;;;13.48;8.03;;;;;;;11.06;97.88;99364.18;4093390;85;21795;-90
2022/12/31 20:29:26;;;;;;;16.02;9.30;;;;;;;10.99;97.57;99377.79;4098744;85;21125;-90
2022/12/31 20:35:32;;;;;;;14.25;7.92;;;;;;;11.07;97.30;99374.00;4093668;85;21449;-91
2022/12/31 20:41:39;;;;;;;10.20;6.12;;;;;;;11.04;97.21;99372.77;4080861;85;21533;-90
2022/12/31 20:47:43;;;;;;;8.93;5.20;;;;;;;10.92;96.96;99379.83;4105389;85;21484;-90
2022/12/31 20:53:55;;;;;;;8.63;4.47;;;;;;;10.76;96.92;99381.91;4112861;84;21099;-88
2022/12/31 20:59:56;;;;;;;8.85;4.55;;;;;;;10.69;97.23;99388.66;3926273;89;21039;-89
2022/12/31 21:06:00;;;;;;;11.60;5.12;;;;;;;10.84;97.15;99371.86;3919821;89;21085;-90
2022/12/31 21:18:32;;;;;;;6.92;4.00;;;;;;;11.05;96.86;99357.13;3974783;87;21115;-89
2022/12/31 21:24:34;;;;;;;6.60;4.00;;;;;;;11.15;96.55;99346.89;3972427;87;21535;-90
2022/12/31 21:30:38;;;;;;;6.25;3.72;;;;;;;11.34;96.39;99347.38;3971174;87;21064;-90
2022/12/31 21:36:40;;;;;;;7.40;3.55;;;;;;;11.66;95.97;99348.02;3972238;87;20976;-88
2022/12/31 21:42:41;;;;;;;10.20;4.75;;;;;;;11.65;95.73;99343.67;3964664;87;21606;-89
2022/12/31 21:48:43;;;;;;;7.65;3.72;;;;;;;11.69;95.40;99347.27;3972104;86;21070;-87
2022/12/31 22:07:33;;;;;;;7.05;3.72;;;;;;;11.95;94.47;99365.61;3971099;87;21034;-88
2022/12/31 22:13:33;;;;;;;7.25;3.60;;;;;;;11.96;94.07;99366.61;3972294;87;21106;-89
2022/12/31 22:19:35;;;;;;;6.25;3.05;;;;;;;11.82;93.62;99362.90;3972371;87;21056;-87
2022/12/31 22:25:43;;;;;;;5.40;3.12;;;;;;;11.80;93.30;99363.27;3962595;87;21081;-91
2022/12/31 22:31:51;;;;;;;8.20;3.15;;;;;;;11.70;93.17;99361.18;3973809;87;21098;-90
2022/12/31 22:37:52;;;;;;;6.50;3.00;;;;;;;11.66;92.99;99370.53;3973371;87;21050;-91
2022/12/31 22:44:06;;;;;;;5.67;3.00;;;;;;;11.54;92.75;99367.40;3979305;87;21082;-91
2022/12/31 22:50:15;;;;;;;5.33;2.25;;;;;;;11.49;92.83;99366.95;3958831;87;21086;-91
2022/12/31 22:56:17;;;;;;;4.87;2.70;;;;;;;11.43;92.79;99365.70;3963758;87;21610;-91
2022/12/31 23:02:30;;;;;;;5.40;2.35;;;;;;;11.37;92.88;99372.06;3992221;86;21174;-91
2022/12/31 23:08:32;;;;;;;6.20;4.05;;;;;;;11.47;92.54;99367.32;4011251;86;21111;-90
2022/12/31 23:27:15;;;;;;;14.75;9.40;;;;;;;11.61;92.22;99372.19;3976992;87;21040;-90
2022/12/31 23:33:25;;;;;;;14.85;8.25;;;;;;;11.76;91.85;99361.05;3985040;87;21058;-91
2022/12/31 23:39:29;;;;;;;12.10;8.15;;;;;;;11.64;91.34;99364.05;3996947;86;21123;-90
2022/12/31 23:45:33;;;;;;;13.43;7.72;;;;;;;11.54;91.14;99365.26;3992794;87;21065;-89
2022/12/31 23:51:35;;;;;;;12.80;7.87;;;;;;;11.57;91.26;99368.63;3982319;86;21134;-90
2022/12/31 23:57:39;;;;;;;8.55;4.97;;;;;;;11.55;90.89;99370.94;3914858;89;21632;-90
